createdAt,value
2018-07-17T00:00:37.605Z,90.02
2018-07-17T00:01:37.596Z,89.64
2018-07-17T00:02:37.585Z,89.92
2018-07-17T00:03:37.578Z,90.69
2018-07-17T00:04:37.568Z,90.02
2018-07-17T00:05:37.561Z,89.54
2018-07-17T00:06:37.551Z,90.50
2018-07-17T00:07:37.542Z,90.12
2018-07-17T00:08:37.535Z,90.21
2018-07-17T00:09:37.542Z,90.31
2018-07-17T00:10:37.518Z,90.50
2018-07-17T00:11:37.508Z,90.98
2018-07-17T00:12:37.557Z,90.69
2018-07-17T00:13:37.491Z,91.08
2018-07-17T00:14:37.482Z,92.09
2018-07-17T00:15:37.473Z,92.19
2018-07-17T00:16:37.467Z,92.29
2018-07-17T00:17:37.458Z,93.24
2018-07-17T00:18:37.448Z,92.96
2018-07-17T00:19:37.439Z,93.44
2018-07-17T00:20:37.431Z,94.01
2018-07-17T00:21:37.422Z,93.91
2018-07-17T00:22:37.414Z,94.49
2018-07-17T00:23:37.403Z,94.59
2018-07-17T00:24:37.395Z,95.07
2018-07-17T00:25:37.386Z,95.55
2018-07-17T00:26:37.376Z,95.17
2018-07-17T00:27:37.370Z,95.45
2018-07-17T00:28:37.363Z,95.55
2018-07-17T00:29:37.351Z,95.84
2018-07-17T00:30:37.341Z,95.65
2018-07-17T00:31:37.332Z,95.84
2018-07-17T00:32:37.326Z,95.75
2018-07-17T00:33:37.317Z,96.13
2018-07-17T00:34:37.306Z,96.42
2018-07-17T00:35:37.301Z,96.61
2018-07-17T00:36:37.288Z,97.09
2018-07-17T00:37:37.284Z,96.99
2018-07-17T00:38:37.276Z,96.94
2018-07-17T00:39:37.261Z,97.52
2018-07-17T00:40:37.255Z,97.42
2018-07-17T00:41:37.246Z,97.96
2018-07-17T00:42:37.226Z,97.96
2018-07-17T00:43:37.218Z,97.81
2018-07-17T00:44:37.207Z,98.00
2018-07-17T00:45:37.203Z,98.34
2018-07-17T00:46:37.194Z,98.05
2018-07-17T00:47:37.180Z,98.63
2018-07-17T00:48:37.174Z,98.63
2018-07-17T00:49:37.163Z,98.53
2018-07-17T00:50:37.153Z,99.49
2018-07-17T00:51:37.144Z,99.21
2018-07-17T00:52:37.140Z,99.44
2018-07-17T00:53:37.131Z,99.99
2018-07-17T00:54:37.118Z,99.99
2018-07-17T00:55:37.171Z,99.99
2018-07-17T00:56:37.102Z,99.99
2018-07-17T00:57:37.094Z,99.99
2018-07-17T00:58:37.083Z,99.99
2018-07-17T00:59:37.073Z,99.99
2018-07-17T01:00:37.067Z,99.99
2018-07-17T01:01:37.058Z,99.99
2018-07-17T01:02:37.049Z,99.99
2018-07-17T01:03:37.038Z,99.99
2018-07-17T01:04:37.035Z,99.99
2018-07-17T01:05:37.020Z,99.99
2018-07-17T01:06:37.022Z,99.99
2018-07-17T01:07:37.004Z,99.99
2018-07-17T01:08:36.993Z,99.99
2018-07-17T01:09:36.989Z,99.99
2018-07-17T01:10:36.976Z,99.99
2018-07-17T01:11:36.968Z,99.99
2018-07-17T01:12:36.959Z,99.99
2018-07-17T01:13:37.149Z,99.99
2018-07-17T01:14:36.939Z,99.99
2018-07-17T01:15:36.931Z,99.99
2018-07-17T01:16:36.927Z,99.99
2018-07-17T01:17:36.911Z,99.99
2018-07-17T01:18:36.907Z,99.99
2018-07-17T01:19:36.902Z,99.99
2018-07-17T01:20:36.890Z,99.99
2018-07-17T01:21:36.875Z,99.99
2018-07-17T01:22:36.869Z,99.99
2018-07-17T01:23:36.858Z,99.99
2018-07-17T01:24:36.848Z,99.99
2018-07-17T01:25:36.847Z,99.99
2018-07-17T01:26:36.829Z,99.99
2018-07-17T01:27:36.820Z,99.99
2018-07-17T01:28:36.813Z,99.99
2018-07-17T01:29:36.803Z,99.99
2018-07-17T01:30:36.802Z,99.99
2018-07-17T01:31:36.785Z,99.99
2018-07-17T01:32:36.777Z,99.99
2018-07-17T01:33:36.768Z,99.99
2018-07-17T01:34:36.757Z,99.99
2018-07-17T01:35:36.746Z,99.99
2018-07-17T01:36:36.741Z,99.99
2018-07-17T01:37:36.733Z,99.99
2018-07-17T01:38:36.720Z,99.99
2018-07-17T01:39:36.710Z,99.99
2018-07-17T01:40:36.701Z,99.99
2018-07-17T01:41:36.693Z,99.99
2018-07-17T01:42:36.679Z,99.99
2018-07-17T01:43:36.676Z,99.99
2018-07-17T01:44:36.666Z,99.99
2018-07-17T01:45:36.653Z,99.99
2018-07-17T01:46:36.648Z,99.99
2018-07-17T01:47:36.636Z,99.99
2018-07-17T01:48:36.636Z,99.99
2018-07-17T01:49:36.621Z,99.99
2018-07-17T01:50:36.609Z,99.99
2018-07-17T01:51:36.605Z,99.99
2018-07-17T01:52:36.591Z,99.99
2018-07-17T01:53:36.585Z,99.99
2018-07-17T01:54:36.572Z,99.99
2018-07-17T01:55:36.562Z,99.99
2018-07-17T01:56:36.553Z,99.99
2018-07-17T01:57:36.550Z,99.99
2018-07-17T01:58:36.539Z,99.99
2018-07-17T01:59:36.523Z,99.99
2018-07-17T02:00:36.517Z,99.99
2018-07-17T02:01:36.503Z,99.99
2018-07-17T02:02:36.494Z,99.99
2018-07-17T02:03:36.490Z,99.99
2018-07-17T02:04:36.475Z,99.99
2018-07-17T02:05:36.472Z,99.99
2018-07-17T02:06:36.459Z,99.99
2018-07-17T02:07:36.452Z,99.99
2018-07-17T02:08:36.439Z,99.99
2018-07-17T02:09:36.433Z,99.99
2018-07-17T02:10:36.425Z,99.99
2018-07-17T02:11:36.412Z,99.99
2018-07-17T02:12:36.400Z,99.99
2018-07-17T02:13:36.398Z,99.99
2018-07-17T02:14:36.389Z,99.99
2018-07-17T02:15:36.380Z,99.99
2018-07-17T02:16:36.362Z,99.99
2018-07-17T02:17:36.357Z,99.99
2018-07-17T02:18:36.356Z,99.99
2018-07-17T02:19:36.341Z,99.99
2018-07-17T02:20:36.324Z,99.99
2018-07-17T02:21:36.322Z,99.99
2018-07-17T02:22:36.307Z,99.99
2018-07-17T02:23:36.305Z,99.99
2018-07-17T02:24:36.289Z,99.99
2018-07-17T02:25:36.277Z,99.99
2018-07-17T02:26:36.266Z,99.99
2018-07-17T02:27:36.261Z,99.99
2018-07-17T02:28:36.249Z,99.99
2018-07-17T02:29:36.238Z,99.99
2018-07-17T02:30:36.236Z,99.99
2018-07-17T02:31:36.227Z,99.99
2018-07-17T02:32:36.210Z,99.99
2018-07-17T02:33:36.200Z,99.99
2018-07-17T02:34:36.199Z,99.99
2018-07-17T02:35:36.188Z,99.99
2018-07-17T02:36:36.172Z,99.99
2018-07-17T02:37:36.170Z,99.99
2018-07-17T02:38:36.153Z,99.99
2018-07-17T02:39:36.142Z,99.99
2018-07-17T02:40:36.139Z,99.99
2018-07-17T02:41:36.122Z,99.99
2018-07-17T02:42:36.113Z,99.99
2018-07-17T02:43:36.310Z,99.99
2018-07-17T02:44:36.101Z,99.99
2018-07-17T02:45:36.093Z,99.99
2018-07-17T02:46:36.081Z,99.99
2018-07-17T02:47:36.067Z,99.99
2018-07-17T02:48:36.063Z,99.99
2018-07-17T02:49:36.047Z,99.99
2018-07-17T02:50:36.034Z,99.99
2018-07-17T02:51:36.029Z,99.99
2018-07-17T02:52:36.020Z,99.99
2018-07-17T02:53:36.010Z,99.99
2018-07-17T02:54:35.999Z,99.99
2018-07-17T02:55:35.986Z,99.99
2018-07-17T02:56:35.979Z,99.99
2018-07-17T02:57:35.975Z,99.99
2018-07-17T02:58:35.963Z,99.99
2018-07-17T02:59:35.955Z,99.99
2018-07-17T03:00:35.935Z,99.99
2018-07-17T03:01:35.934Z,99.99
2018-07-17T03:02:35.915Z,99.99
2018-07-17T03:03:35.917Z,99.99
2018-07-17T03:04:35.902Z,99.99
2018-07-17T03:05:35.888Z,99.99
2018-07-17T03:06:35.877Z,99.99
2018-07-17T03:07:35.865Z,99.99
2018-07-17T03:08:35.864Z,99.99
2018-07-17T03:09:35.846Z,99.99
2018-07-17T03:10:35.837Z,99.99
2018-07-17T03:11:35.826Z,99.99
2018-07-17T03:12:35.825Z,99.99
2018-07-17T03:13:35.806Z,99.99
2018-07-17T03:14:35.806Z,99.99
2018-07-17T03:15:35.787Z,99.99
2018-07-17T03:16:35.776Z,99.99
2018-07-17T03:17:35.770Z,99.99
2018-07-17T03:18:35.764Z,99.99
2018-07-17T03:19:35.754Z,99.99
2018-07-17T03:20:35.743Z,99.99
2018-07-17T03:21:35.734Z,99.99
2018-07-17T03:22:35.724Z,99.99
2018-07-17T03:23:35.710Z,99.99
2018-07-17T03:24:35.777Z,99.99
2018-07-17T03:25:35.708Z,99.99
2018-07-17T03:26:35.676Z,99.99
2018-07-17T03:27:35.665Z,99.99
2018-07-17T03:28:35.657Z,99.99
2018-07-17T03:29:35.646Z,99.99
2018-07-17T03:30:35.644Z,99.99
2018-07-17T03:31:35.634Z,99.99
2018-07-17T03:32:35.620Z,99.99
2018-07-17T03:33:35.607Z,99.99
2018-07-17T03:34:35.594Z,99.99
2018-07-17T03:35:35.584Z,99.99
2018-07-17T03:36:35.613Z,99.99
2018-07-17T03:37:35.566Z,99.99
2018-07-17T03:38:35.554Z,99.99
2018-07-17T03:39:35.551Z,99.99
2018-07-17T03:40:35.534Z,99.99
2018-07-17T03:41:35.525Z,99.99
2018-07-17T03:42:35.522Z,99.99
2018-07-17T03:43:35.511Z,99.99
2018-07-17T03:44:35.492Z,99.99
2018-07-17T03:45:35.485Z,99.99
2018-07-17T03:46:35.472Z,99.99
2018-07-17T03:47:35.460Z,99.99
2018-07-17T03:48:35.450Z,99.99
2018-07-17T03:49:35.447Z,99.99
2018-07-17T03:50:35.428Z,99.99
2018-07-17T03:51:35.424Z,99.99
2018-07-17T03:52:35.408Z,99.99
2018-07-17T03:53:35.400Z,99.99
2018-07-17T03:54:35.391Z,99.99
2018-07-17T03:55:35.385Z,99.99
2018-07-17T03:56:35.368Z,99.99
2018-07-17T03:57:35.357Z,99.99
2018-07-17T03:58:35.348Z,99.99
2018-07-17T03:59:35.340Z,99.99
2018-07-17T04:00:35.324Z,99.99
2018-07-17T04:01:35.314Z,99.99
2018-07-17T04:02:35.322Z,99.99
2018-07-17T04:03:35.293Z,99.99
2018-07-17T04:04:35.289Z,99.99
2018-07-17T04:05:35.279Z,99.99
2018-07-17T04:06:35.270Z,99.99
2018-07-17T04:07:35.252Z,99.99
2018-07-17T04:08:35.245Z,99.99
2018-07-17T04:09:35.230Z,99.99
2018-07-17T04:10:35.219Z,99.99
2018-07-17T04:11:35.212Z,99.99
2018-07-17T04:12:35.203Z,99.99
2018-07-17T04:13:35.191Z,99.99
2018-07-17T04:14:35.185Z,99.99
2018-07-17T04:15:35.168Z,99.99
2018-07-17T04:16:35.156Z,99.99
2018-07-17T04:17:35.146Z,99.99
2018-07-17T04:18:35.139Z,99.99
2018-07-17T04:19:35.124Z,99.99
2018-07-17T04:20:35.115Z,99.99
2018-07-17T04:21:35.105Z,99.99
2018-07-17T04:22:35.093Z,99.99
2018-07-17T04:23:35.098Z,99.99
2018-07-17T04:24:35.076Z,99.99
2018-07-17T04:25:35.062Z,99.99
2018-07-17T04:26:35.052Z,99.99
2018-07-17T04:27:35.039Z,99.99
2018-07-17T04:28:35.027Z,99.99
2018-07-17T04:29:35.018Z,99.99
2018-07-17T04:30:35.005Z,99.99
2018-07-17T04:31:35.036Z,99.99
2018-07-17T04:32:34.985Z,99.99
2018-07-17T04:33:34.976Z,99.99
2018-07-17T04:34:34.962Z,99.99
2018-07-17T04:35:34.958Z,99.99
2018-07-17T04:36:34.941Z,99.99
2018-07-17T04:37:34.932Z,99.99
2018-07-17T04:38:34.919Z,99.99
2018-07-17T04:39:34.972Z,99.99
2018-07-17T04:40:34.900Z,99.99
2018-07-17T04:41:34.887Z,99.99
2018-07-17T04:42:34.877Z,99.99
2018-07-17T04:43:35.070Z,99.99
2018-07-17T04:44:34.863Z,99.99
2018-07-17T04:45:34.846Z,99.99
2018-07-17T04:46:34.833Z,99.99
2018-07-17T04:47:34.826Z,99.99
2018-07-17T04:48:34.822Z,99.99
2018-07-17T04:49:35.100Z,99.99
2018-07-17T04:50:34.789Z,99.99
2018-07-17T04:51:34.779Z,99.99
2018-07-17T04:52:34.768Z,99.99
2018-07-17T04:53:34.758Z,99.99
2018-07-17T04:54:34.746Z,99.99
2018-07-17T04:55:34.736Z,99.99
2018-07-17T04:56:34.726Z,99.99
2018-07-17T04:57:34.714Z,99.99
2018-07-17T04:58:34.702Z,99.99
2018-07-17T04:59:34.692Z,99.99
2018-07-17T05:00:34.681Z,99.99
2018-07-17T05:01:34.682Z,99.99
2018-07-17T05:02:34.661Z,99.99
2018-07-17T05:03:34.648Z,99.99
2018-07-17T05:04:34.637Z,99.99
2018-07-17T05:05:34.626Z,99.99
2018-07-17T05:06:34.614Z,99.99
2018-07-17T05:07:34.604Z,99.99
2018-07-17T05:08:34.648Z,99.99
2018-07-17T05:09:34.582Z,99.99
2018-07-17T05:10:34.571Z,99.99
2018-07-17T05:11:34.559Z,99.99
2018-07-17T05:12:34.549Z,99.99
2018-07-17T05:13:34.538Z,99.99
2018-07-17T05:14:34.527Z,99.99
2018-07-17T05:15:34.515Z,99.99
2018-07-17T05:16:34.507Z,99.99
2018-07-17T05:17:34.495Z,99.99
2018-07-17T05:18:34.485Z,99.99
2018-07-17T05:19:34.471Z,99.99
2018-07-17T05:20:34.461Z,99.99
2018-07-17T05:21:34.450Z,99.99
2018-07-17T05:22:34.438Z,99.99
2018-07-17T05:23:34.427Z,99.99
2018-07-17T05:24:34.416Z,99.99
2018-07-17T05:25:34.405Z,99.99
2018-07-17T05:26:34.395Z,99.99
2018-07-17T05:27:34.383Z,99.99
2018-07-17T05:28:34.373Z,99.99
2018-07-17T05:29:34.361Z,99.99
2018-07-17T05:30:34.350Z,99.99
2018-07-17T05:31:34.539Z,99.99
2018-07-17T05:32:34.327Z,99.99
2018-07-17T05:33:34.319Z,99.99
2018-07-17T05:34:34.305Z,99.99
2018-07-17T05:35:34.370Z,99.99
2018-07-17T05:36:34.283Z,99.99
2018-07-17T05:37:34.272Z,99.99
2018-07-17T05:38:34.290Z,99.99
2018-07-17T05:39:34.251Z,99.99
2018-07-17T05:40:34.239Z,99.99
2018-07-17T05:41:34.229Z,99.99
2018-07-17T05:42:34.216Z,99.99
2018-07-17T05:43:34.406Z,99.99
2018-07-17T05:44:34.196Z,99.99
2018-07-17T05:45:34.183Z,99.99
2018-07-17T05:46:34.187Z,99.99
2018-07-17T05:47:34.161Z,99.99
2018-07-17T05:48:34.150Z,99.99
2018-07-17T05:49:34.342Z,99.99
2018-07-17T05:50:34.128Z,99.99
2018-07-17T05:51:34.116Z,99.99
2018-07-17T05:52:34.105Z,99.99
2018-07-17T05:53:34.094Z,99.99
2018-07-17T05:54:34.083Z,99.99
2018-07-17T05:55:34.073Z,99.99
2018-07-17T05:56:34.063Z,99.99
2018-07-17T05:57:34.050Z,99.99
2018-07-17T05:58:34.040Z,99.99
2018-07-17T05:59:34.028Z,99.99
2018-07-17T06:00:34.020Z,99.99
2018-07-17T06:01:34.005Z,99.99
2018-07-17T06:02:33.994Z,99.99
2018-07-17T06:03:33.982Z,99.99
2018-07-17T06:04:33.974Z,99.99
2018-07-17T06:05:33.962Z,99.99
2018-07-17T06:06:33.949Z,99.99
2018-07-17T06:07:33.938Z,99.99
2018-07-17T06:08:33.926Z,99.99
2018-07-17T06:09:33.915Z,99.99
2018-07-17T06:10:33.904Z,99.99
2018-07-17T06:11:33.893Z,99.99
2018-07-17T06:12:33.881Z,99.99
2018-07-17T06:13:33.871Z,99.99
2018-07-17T06:14:33.859Z,99.99
2018-07-17T06:15:33.848Z,99.99
2018-07-17T06:16:33.837Z,99.99
2018-07-17T06:17:33.826Z,99.99
2018-07-17T06:18:33.814Z,99.99
2018-07-17T06:19:33.803Z,99.99
2018-07-17T06:20:33.792Z,99.99
2018-07-17T06:21:33.784Z,99.99
2018-07-17T06:22:33.772Z,99.99
2018-07-17T06:23:33.761Z,99.99
2018-07-17T06:24:33.748Z,99.99
2018-07-17T06:25:33.736Z,99.99
2018-07-17T06:26:33.724Z,99.99
2018-07-17T06:27:33.713Z,99.99
2018-07-17T06:28:33.704Z,99.99
2018-07-17T06:29:33.694Z,99.99
2018-07-17T06:30:33.678Z,99.99
2018-07-17T06:31:33.668Z,99.99
2018-07-17T06:32:33.658Z,99.99
2018-07-17T06:33:33.673Z,99.99
2018-07-17T06:34:33.635Z,99.99
2018-07-17T06:35:33.621Z,99.99
2018-07-17T06:36:33.610Z,99.99
2018-07-17T06:37:33.599Z,99.99
2018-07-17T06:38:33.587Z,99.99
2018-07-17T06:39:33.575Z,99.99
2018-07-17T06:40:33.569Z,99.99
2018-07-17T06:41:33.553Z,99.99
2018-07-17T06:42:33.543Z,99.99
2018-07-17T06:43:33.732Z,99.99
2018-07-17T06:44:33.561Z,99.99
2018-07-17T06:45:33.509Z,99.99
2018-07-17T06:46:33.496Z,99.99
2018-07-17T06:47:33.485Z,99.99
2018-07-17T06:48:33.479Z,99.99
2018-07-17T06:49:33.466Z,99.99
2018-07-17T06:50:33.480Z,99.99
2018-07-17T06:51:33.441Z,99.99
2018-07-17T06:52:33.430Z,99.99
2018-07-17T06:53:33.419Z,99.99
2018-07-17T06:54:33.409Z,99.99
2018-07-17T06:55:33.402Z,99.99
2018-07-17T06:56:33.385Z,99.99
2018-07-17T06:57:33.375Z,99.99
2018-07-17T06:58:33.362Z,99.99
2018-07-17T06:59:33.351Z,99.99
2018-07-17T07:00:33.340Z,99.99
2018-07-17T07:01:33.328Z,99.99
2018-07-17T07:02:33.319Z,99.99
2018-07-17T07:03:33.305Z,99.99
2018-07-17T07:04:33.294Z,99.99
2018-07-17T07:05:33.284Z,99.99
2018-07-17T07:06:33.274Z,99.99
2018-07-17T07:07:33.260Z,99.99
2018-07-17T07:08:33.249Z,99.99
2018-07-17T07:09:33.238Z,99.99
2018-07-17T07:10:33.232Z,99.99
2018-07-17T07:11:33.215Z,99.99
2018-07-17T07:12:33.205Z,99.99
2018-07-17T07:13:33.392Z,99.99
2018-07-17T07:14:33.183Z,99.99
2018-07-17T07:15:33.170Z,99.99
2018-07-17T07:16:33.159Z,99.99
2018-07-17T07:17:33.148Z,99.99
2018-07-17T07:18:33.138Z,99.99
2018-07-17T07:19:33.124Z,99.99
2018-07-17T07:20:33.113Z,99.99
2018-07-17T07:21:33.102Z,99.99
2018-07-17T07:22:33.091Z,99.99
2018-07-17T07:23:33.080Z,99.99
2018-07-17T07:24:33.068Z,99.99
2018-07-17T07:25:33.058Z,99.99
2018-07-17T07:26:33.045Z,99.99
2018-07-17T07:27:33.038Z,99.99
2018-07-17T07:28:33.026Z,99.99
2018-07-17T07:29:33.013Z,99.99
2018-07-17T07:30:33.002Z,99.99
2018-07-17T07:31:32.989Z,99.99
2018-07-17T07:32:32.978Z,99.99
2018-07-17T07:33:32.967Z,99.99
2018-07-17T07:34:32.955Z,99.99
2018-07-17T07:35:32.944Z,99.99
2018-07-17T07:36:32.937Z,99.99
2018-07-17T07:37:32.922Z,99.99
2018-07-17T07:38:32.910Z,99.99
2018-07-17T07:39:32.902Z,99.99
2018-07-17T07:40:32.887Z,99.99
2018-07-17T07:41:32.876Z,99.99
2018-07-17T07:42:32.866Z,99.99
2018-07-17T07:43:32.853Z,99.99
2018-07-17T07:44:32.842Z,99.99
2018-07-17T07:45:32.831Z,99.99
2018-07-17T07:46:32.819Z,99.99
2018-07-17T07:47:32.808Z,99.99
2018-07-17T07:48:32.796Z,99.99
2018-07-17T07:49:32.787Z,99.99
2018-07-17T07:50:32.773Z,99.99
2018-07-17T07:51:32.763Z,99.99
2018-07-17T07:52:32.751Z,99.99
2018-07-17T07:53:32.739Z,99.99
2018-07-17T07:54:32.728Z,99.99
2018-07-17T07:55:32.937Z,99.99
2018-07-17T07:56:32.705Z,99.99
2018-07-17T07:57:32.694Z,99.99
2018-07-17T07:58:32.684Z,99.99
2018-07-17T07:59:32.671Z,99.99
2018-07-17T08:00:32.659Z,99.99
2018-07-17T08:01:32.652Z,99.99
2018-07-17T08:02:32.636Z,99.99
2018-07-17T08:03:32.650Z,99.99
2018-07-17T08:04:32.614Z,99.99
2018-07-17T08:05:32.603Z,99.99
2018-07-17T08:06:32.591Z,99.99
2018-07-17T08:07:32.579Z,99.99
2018-07-17T08:08:32.568Z,99.99
2018-07-17T08:09:32.557Z,99.99
2018-07-17T08:10:32.545Z,99.99
2018-07-17T08:11:32.559Z,99.99
2018-07-17T08:12:32.523Z,99.99
2018-07-17T08:13:32.511Z,99.99
2018-07-17T08:14:32.499Z,99.99
2018-07-17T08:15:32.487Z,99.99
2018-07-17T08:16:32.476Z,99.99
2018-07-17T08:17:32.465Z,99.99
2018-07-17T08:18:32.453Z,99.99
2018-07-17T08:19:32.440Z,99.99
2018-07-17T08:20:32.431Z,99.99
2018-07-17T08:21:32.418Z,99.99
2018-07-17T08:22:32.406Z,99.99
2018-07-17T08:23:32.395Z,99.99
2018-07-17T08:24:32.384Z,99.99
2018-07-17T08:25:32.522Z,99.99
2018-07-17T08:26:32.360Z,99.99
2018-07-17T08:27:32.348Z,99.99
2018-07-17T08:28:32.337Z,99.99
2018-07-17T08:29:32.325Z,99.99
2018-07-17T08:30:32.313Z,99.99
2018-07-17T08:31:32.301Z,99.99
2018-07-17T08:32:32.291Z,99.99
2018-07-17T08:33:32.278Z,99.99
2018-07-17T08:34:32.267Z,99.99
2018-07-17T08:35:32.254Z,99.99
2018-07-17T08:36:32.246Z,99.99
2018-07-17T08:37:32.234Z,99.99
2018-07-17T08:38:32.219Z,99.99
2018-07-17T08:39:32.207Z,99.99
2018-07-17T08:40:32.195Z,99.99
2018-07-17T08:41:32.184Z,99.99
2018-07-17T08:42:32.171Z,99.99
2018-07-17T08:43:32.332Z,99.99
2018-07-17T08:44:32.148Z,99.99
2018-07-17T08:45:32.138Z,99.99
2018-07-17T08:46:32.125Z,99.99
2018-07-17T08:47:32.113Z,99.99
2018-07-17T08:48:32.101Z,99.99
2018-07-17T08:49:32.091Z,99.99
2018-07-17T08:50:32.076Z,99.99
2018-07-17T08:51:32.064Z,99.99
2018-07-17T08:52:32.051Z,99.99
2018-07-17T08:53:32.041Z,99.99
2018-07-17T08:54:32.106Z,99.99
2018-07-17T08:55:32.216Z,99.99
2018-07-17T08:56:32.004Z,99.99
2018-07-17T08:57:31.993Z,99.99
2018-07-17T08:58:31.979Z,99.99
2018-07-17T08:59:31.967Z,99.99
2018-07-17T09:00:31.994Z,99.99
2018-07-17T09:01:31.943Z,99.99
2018-07-17T09:02:31.930Z,99.99
2018-07-17T09:03:31.919Z,99.99
2018-07-17T09:04:31.955Z,99.99
2018-07-17T09:05:31.895Z,99.99
2018-07-17T09:06:31.882Z,99.99
2018-07-17T09:07:31.871Z,99.99
2018-07-17T09:08:31.859Z,99.99
2018-07-17T09:09:31.848Z,99.99
2018-07-17T09:10:31.834Z,99.99
2018-07-17T09:11:31.823Z,99.99
2018-07-17T09:12:31.811Z,99.99
2018-07-17T09:13:31.799Z,99.99
2018-07-17T09:14:31.787Z,99.99
2018-07-17T09:15:31.775Z,99.99
2018-07-17T09:16:31.763Z,99.99
2018-07-17T09:17:31.751Z,99.99
2018-07-17T09:18:31.738Z,99.99
2018-07-17T09:19:31.730Z,99.99
2018-07-17T09:20:31.715Z,99.99
2018-07-17T09:21:31.763Z,99.99
2018-07-17T09:22:31.691Z,99.99
2018-07-17T09:23:31.680Z,99.99
2018-07-17T09:24:31.670Z,99.99
2018-07-17T09:25:31.656Z,99.99
2018-07-17T09:26:31.643Z,99.99
2018-07-17T09:27:31.631Z,99.99
2018-07-17T09:28:31.620Z,99.99
2018-07-17T09:29:31.608Z,99.99
2018-07-17T09:30:31.595Z,99.99
2018-07-17T09:31:31.584Z,99.99
2018-07-17T09:32:31.571Z,99.99
2018-07-17T09:33:31.578Z,99.99
2018-07-17T09:34:31.546Z,99.99
2018-07-17T09:35:31.534Z,99.99
2018-07-17T09:36:31.522Z,99.99
2018-07-17T09:37:31.510Z,99.99
2018-07-17T09:38:31.501Z,99.99
2018-07-17T09:39:31.487Z,99.99
2018-07-17T09:40:31.473Z,99.99
2018-07-17T09:41:31.468Z,99.99
2018-07-17T09:42:31.449Z,99.99
2018-07-17T09:43:31.437Z,99.99
2018-07-17T09:44:31.425Z,99.99
2018-07-17T09:45:31.413Z,99.99
2018-07-17T09:46:31.400Z,99.99
2018-07-17T09:47:31.391Z,99.99
2018-07-17T09:48:31.378Z,99.99
2018-07-17T09:49:31.365Z,99.99
2018-07-17T09:50:31.352Z,99.99
2018-07-17T09:51:31.340Z,99.99
2018-07-17T09:52:31.328Z,99.99
2018-07-17T09:53:31.316Z,99.99
2018-07-17T09:54:31.303Z,99.99
2018-07-17T09:55:31.291Z,99.99
2018-07-17T09:56:31.280Z,99.99
2018-07-17T09:57:31.268Z,99.99
2018-07-17T09:58:31.255Z,99.99
2018-07-17T09:59:31.244Z,99.99
2018-07-17T10:00:31.230Z,99.99
2018-07-17T10:01:31.220Z,99.99
2018-07-17T10:02:31.206Z,99.99
2018-07-17T10:03:31.195Z,99.99
2018-07-17T10:04:31.182Z,99.99
2018-07-17T10:05:31.171Z,99.99
2018-07-17T10:06:31.160Z,99.99
2018-07-17T10:07:31.147Z,99.99
2018-07-17T10:08:31.136Z,99.99
2018-07-17T10:09:31.154Z,99.99
2018-07-17T10:10:31.110Z,99.99
2018-07-17T10:11:31.100Z,99.99
2018-07-17T10:12:31.087Z,99.99
2018-07-17T10:13:31.076Z,99.99
2018-07-17T10:14:31.107Z,99.99
2018-07-17T10:15:31.051Z,99.99
2018-07-17T10:16:31.039Z,99.99
2018-07-17T10:17:31.029Z,99.99
2018-07-17T10:18:31.016Z,99.99
2018-07-17T10:19:31.003Z,99.99
2018-07-17T10:20:30.992Z,99.99
2018-07-17T10:21:30.980Z,99.99
2018-07-17T10:22:30.981Z,99.99
2018-07-17T10:23:30.956Z,99.99
2018-07-17T10:24:30.946Z,99.99
2018-07-17T10:25:30.934Z,99.99
2018-07-17T10:26:30.964Z,99.99
2018-07-17T10:27:30.909Z,99.99
2018-07-17T10:28:30.896Z,99.99
2018-07-17T10:29:30.885Z,99.99
2018-07-17T10:30:30.872Z,99.99
2018-07-17T10:31:30.861Z,99.99
2018-07-17T10:32:30.848Z,99.99
2018-07-17T10:33:30.837Z,99.99
2018-07-17T10:34:30.824Z,99.99
2018-07-17T10:35:30.812Z,99.99
2018-07-17T10:36:30.801Z,99.99
2018-07-17T10:37:30.789Z,99.99
2018-07-17T10:38:30.848Z,99.99
2018-07-17T10:39:30.770Z,99.99
2018-07-17T10:40:30.755Z,99.99
2018-07-17T10:41:30.741Z,99.99
2018-07-17T10:42:30.728Z,99.99
2018-07-17T10:43:30.717Z,99.99
2018-07-17T10:44:30.707Z,99.99
2018-07-17T10:45:30.694Z,99.99
2018-07-17T10:46:30.681Z,99.99
2018-07-17T10:47:30.679Z,99.99
2018-07-17T10:48:30.659Z,99.99
2018-07-17T10:49:30.650Z,99.99
2018-07-17T10:50:30.634Z,99.99
2018-07-17T10:51:30.623Z,99.99
2018-07-17T10:52:30.612Z,99.99
2018-07-17T10:53:30.600Z,99.99
2018-07-17T10:54:30.591Z,99.99
2018-07-17T10:55:30.579Z,99.99
2018-07-17T10:56:30.564Z,99.99
2018-07-17T10:57:30.554Z,99.99
2018-07-17T10:58:30.540Z,99.99
2018-07-17T10:59:30.529Z,99.99
2018-07-17T11:00:30.521Z,99.99
2018-07-17T11:01:30.506Z,99.99
2018-07-17T11:02:30.494Z,99.99
2018-07-17T11:03:30.484Z,99.99
2018-07-17T11:04:30.470Z,99.99
2018-07-17T11:05:30.460Z,99.99
2018-07-17T11:06:30.446Z,99.99
2018-07-17T11:07:30.434Z,99.99
2018-07-17T11:08:30.508Z,99.99
2018-07-17T11:09:30.411Z,99.99
2018-07-17T11:10:30.399Z,99.99
2018-07-17T11:11:30.386Z,99.99
2018-07-17T11:12:30.374Z,99.99
2018-07-17T11:13:30.362Z,99.99
2018-07-17T11:14:30.350Z,99.99
2018-07-17T11:15:30.338Z,99.99
2018-07-17T11:16:30.326Z,99.99
2018-07-17T11:17:30.315Z,99.99
2018-07-17T11:18:30.302Z,99.99
2018-07-17T11:19:30.289Z,99.99
2018-07-17T11:20:30.279Z,99.99
2018-07-17T11:21:30.267Z,99.99
2018-07-17T11:22:30.254Z,99.99
2018-07-17T11:23:30.242Z,99.99
2018-07-17T11:24:30.230Z,99.99
2018-07-17T11:25:30.219Z,99.99
2018-07-17T11:26:30.206Z,99.99
2018-07-17T11:27:30.197Z,99.99
2018-07-17T11:28:30.185Z,99.99
2018-07-17T11:29:30.173Z,99.99
2018-07-17T11:30:30.160Z,99.99
2018-07-17T11:31:30.146Z,99.99
2018-07-17T11:32:30.135Z,99.99
2018-07-17T11:33:30.123Z,99.99
2018-07-17T11:34:30.114Z,99.99
2018-07-17T11:35:30.100Z,99.99
2018-07-17T11:36:30.088Z,99.99
2018-07-17T11:37:30.078Z,99.99
2018-07-17T11:38:30.065Z,99.99
2018-07-17T11:39:30.053Z,99.99
2018-07-17T11:40:30.041Z,99.99
2018-07-17T11:41:30.039Z,99.99
2018-07-17T11:42:30.017Z,99.99
2018-07-17T11:43:30.007Z,99.99
2018-07-17T11:44:29.994Z,99.99
2018-07-17T11:45:29.983Z,99.99
2018-07-17T11:46:29.973Z,99.99
2018-07-17T11:47:29.959Z,99.99
2018-07-17T11:48:29.948Z,99.99
2018-07-17T11:49:29.937Z,99.99
2018-07-17T11:50:29.925Z,99.99
2018-07-17T11:51:29.914Z,99.99
2018-07-17T11:52:29.903Z,99.99
2018-07-17T11:53:29.894Z,99.99
2018-07-17T11:54:29.882Z,99.99
2018-07-17T11:55:29.870Z,99.99
2018-07-17T11:56:29.860Z,99.99
2018-07-17T11:57:29.850Z,99.99
2018-07-17T11:58:29.838Z,99.99
2018-07-17T11:59:29.967Z,99.99
2018-07-17T12:00:29.818Z,99.99
2018-07-17T12:01:29.808Z,99.99
2018-07-17T12:02:29.796Z,99.99
2018-07-17T12:03:29.785Z,99.99
2018-07-17T12:04:29.775Z,99.99
2018-07-17T12:05:29.809Z,99.99
2018-07-17T12:06:29.754Z,99.99
2018-07-17T12:07:29.745Z,99.99
2018-07-17T12:08:29.735Z,99.99
2018-07-17T12:09:29.725Z,99.99
2018-07-17T12:10:29.739Z,99.99
2018-07-17T12:11:29.705Z,99.99
2018-07-17T12:12:29.693Z,99.99
2018-07-17T12:13:29.687Z,99.99
2018-07-17T12:14:29.672Z,99.99
2018-07-17T12:15:29.666Z,99.99
2018-07-17T12:16:29.664Z,99.99
2018-07-17T12:17:29.672Z,99.99
2018-07-17T12:18:29.637Z,99.99
2018-07-17T12:19:29.642Z,99.99
2018-07-17T12:20:29.756Z,99.99
2018-07-17T12:21:29.618Z,99.99
2018-07-17T12:22:29.597Z,99.99
2018-07-17T12:23:29.590Z,99.99
2018-07-17T12:24:29.581Z,99.99
2018-07-17T12:25:29.565Z,99.99
2018-07-17T12:26:29.570Z,99.99
2018-07-17T12:27:29.548Z,99.99
2018-07-17T12:28:29.538Z,99.99
2018-07-17T12:29:29.527Z,99.99
2018-07-17T12:30:29.519Z,99.99
2018-07-17T12:31:29.508Z,99.99
2018-07-17T12:32:29.502Z,99.99
2018-07-17T12:33:29.491Z,99.99
2018-07-17T12:34:29.483Z,99.99
2018-07-17T12:35:29.474Z,99.99
2018-07-17T12:36:29.463Z,99.99
2018-07-17T12:37:29.455Z,99.99
2018-07-17T12:38:29.444Z,99.99
2018-07-17T12:39:29.436Z,99.99
2018-07-17T12:40:29.427Z,99.99
2018-07-17T12:41:29.419Z,99.99
2018-07-17T12:42:29.409Z,99.99
2018-07-17T12:43:29.402Z,99.99
2018-07-17T12:44:29.446Z,99.99
2018-07-17T12:45:29.385Z,99.99
2018-07-17T12:46:29.377Z,99.99
2018-07-17T12:47:29.371Z,99.74
2018-07-17T12:48:29.360Z,99.35
2018-07-17T12:49:29.705Z,99.26
2018-07-17T12:50:29.344Z,98.49
2018-07-17T12:51:29.336Z,98.58
2018-07-17T12:52:29.329Z,97.33